Rechercher aéroport 
image banner adimage banner ad
image banner ad

DAUU - Ouargla/Ain Beida

Situé à Ouargla, Algeria

ICAO - DAUU, IATA - OGX

Données fournies par Airmate  

Information générale

Coordonnées: N31°55'53" E5°24'49"
Élévation : 498 feet MSL.
 
Voir autres Aéroports à Ouargla Province

Données opérationnelles

Accessible au public
Heure actuelle UTC:
Heure actuelle locale:
Météo
METAR: DAUU 290200Z 08010KT 9999 FEW046 23/07 Q1016
TAF: TAF DAUU 282300Z 2900/2909 04010KT CAVOK
Voir NOTAMs / SUP AIP / TFR affectant cet aéroport [VIEW]
Fréquences de communication: [VIEW]

Pistes:

Identifiant RWYQFULongueur (ft)Largeur (ft)SurfaceLDA (ft)
0215°9843148ASP
20195°9843148
18179°9843148
36359°9843148

Coordonnées de l'aéroport

Adresse: Ouargla Algeria

Vue satellite de DAUU